sensor_id;sensor_type;location;lat;lon;timestamp;temperature;humidity
5476;DHT22;2760;50.000;9.194;2023-10-19T00:01:54;13.30;99.90
5476;DHT22;2760;50.000;9.194;2023-10-19T00:06:49;10.60;99.90
5476;DHT22;2760;50.000;9.194;2023-10-19T00:09:16;10.60;99.90
5476;DHT22;2760;50.000;9.194;2023-10-19T00:11:43;10.60;99.90
5476;DHT22;2760;50.000;9.194;2023-10-19T00:14:12;12.80;99.90
5476;DHT22;2760;50.000;9.194;2023-10-19T00:16:44;10.70;99.90
5476;DHT22;2760;50.000;9.194;2023-10-19T00:19:17;10.60;99.90
5476;DHT22;2760;50.000;9.194;2023-10-19T00:21:45;13.00;99.90
5476;DHT22;2760;50.000;9.194;2023-10-19T00:26:49;10.60;99.90
5476;DHT22;2760;50.000;9.194;2023-10-19T00:31:58;10.70;99.90
5476;DHT22;2760;50.000;9.194;2023-10-19T00:34:27;12.20;99.90
5476;DHT22;2760;50.000;9.194;2023-10-19T00:36:54;10.20;99.90
5476;DHT22;2760;50.000;9.194;2023-10-19T00:39:22;10.70;99.90
5476;DHT22;2760;50.000;9.194;2023-10-19T00:41:50;10.60;99.90
5476;DHT22;2760;50.000;9.194;2023-10-19T00:47:03;10.60;99.90
5476;DHT22;2760;50.000;9.194;2023-10-19T00:52:06;10.80;99.90
5476;DHT22;2760;50.000;9.194;2023-10-19T00:54:40;10.80;99.90
5476;DHT22;2760;50.000;9.194;2023-10-19T00:57:17;10.70;99.90
5476;DHT22;2760;50.000;9.194;2023-10-19T00:59:47;12.40;99.90
5476;DHT22;2760;50.000;9.194;2023-10-19T01:02:16;12.10;99.90
5476;DHT22;2760;50.000;9.194;2023-10-19T01:04:47;11.80;99.90
5476;DHT22;2760;50.000;9.194;2023-10-19T01:07:22;12.00;99.90
5476;DHT22;2760;50.000;9.194;2023-10-19T01:09:54;8.80;99.90
5476;DHT22;2760;50.000;9.194;2023-10-19T01:12:22;13.40;99.90
5476;DHT22;2760;50.000;9.194;2023-10-19T01:15:07;10.80;99.90
5476;DHT22;2760;50.000;9.194;2023-10-19T01:17:38;10.70;99.90
5476;DHT22;2760;50.000;9.194;2023-10-19T01:20:09;13.10;99.90
5476;DHT22;2760;50.000;9.194;2023-10-19T01:22:51;10.70;99.90
5476;DHT22;2760;50.000;9.194;2023-10-19T01:25:42;10.80;99.90
5476;DHT22;2760;50.000;9.194;2023-10-19T01:28:11;13.20;99.90
5476;DHT22;2760;50.000;9.194;2023-10-19T01:33:10;10.80;99.90
5476;DHT22;2760;50.000;9.194;2023-10-19T01:35:41;10.70;99.90
5476;DHT22;2760;50.000;9.194;2023-10-19T01:38:30;10.80;99.90
5476;DHT22;2760;50.000;9.194;2023-10-19T01:43:27;10.80;99.90
5476;DHT22;2760;50.000;9.194;2023-10-19T01:45:56;11.70;99.90
5476;DHT22;2760;50.000;9.194;2023-10-19T01:48:23;10.80;99.90
5476;DHT22;2760;50.000;9.194;2023-10-19T01:50:59;13.10;99.90
5476;DHT22;2760;50.000;9.194;2023-10-19T01:53:30;13.60;99.90
5476;DHT22;2760;50.000;9.194;2023-10-19T01:55:57;11.30;99.90
5476;DHT22;2760;50.000;9.194;2023-10-19T01:58:24;11.00;99.90
5476;DHT22;2760;50.000;9.194;2023-10-19T02:00:53;10.90;99.90
5476;DHT22;2760;50.000;9.194;2023-10-19T02:03:26;13.60;99.90
5476;DHT22;2760;50.000;9.194;2023-10-19T02:05:57;11.90;99.90
5476;DHT22;2760;50.000;9.194;2023-10-19T02:08:26;12.90;99.90
5476;DHT22;2760;50.000;9.194;2023-10-19T02:10:54;11.00;99.90
5476;DHT22;2760;50.000;9.194;2023-10-19T02:13:21;12.20;99.90
5476;DHT22;2760;50.000;9.194;2023-10-19T02:15:47;12.60;99.90
5476;DHT22;2760;50.000;9.194;2023-10-19T02:18:15;13.50;99.90
5476;DHT22;2760;50.000;9.194;2023-10-19T02:20:43;10.90;99.90
5476;DHT22;2760;50.000;9.194;2023-10-19T02:23:14;12.50;99.90
5476;DHT22;2760;50.000;9.194;2023-10-19T02:25:40;11.10;99.90
5476;DHT22;2760;50.000;9.194;2023-10-19T02:28:09;11.00;99.90
5476;DHT22;2760;50.000;9.194;2023-10-19T02:30:35;11.20;99.90
5476;DHT22;2760;50.000;9.194;2023-10-19T02:38:01;11.20;99.90
5476;DHT22;2760;50.000;9.194;2023-10-19T02:40:27;11.20;99.90
5476;DHT22;2760;50.000;9.194;2023-10-19T02:42:59;12.60;99.90
5476;DHT22;2760;50.000;9.194;2023-10-19T02:45:30;12.70;99.90
5476;DHT22;2760;50.000;9.194;2023-10-19T02:47:58;11.20;99.90
5476;DHT22;2760;50.000;9.194;2023-10-19T02:50:24;12.70;99.90
5476;DHT22;2760;50.000;9.194;2023-10-19T02:52:52;13.10;99.90
5476;DHT22;2760;50.000;9.194;2023-10-19T02:55:19;11.30;99.90
5476;DHT22;2760;50.000;9.194;2023-10-19T02:57:50;11.40;99.90
5476;DHT22;2760;50.000;9.194;2023-10-19T03:00:16;13.10;99.90
5476;DHT22;2760;50.000;9.194;2023-10-19T03:05:13;12.80;99.90
5476;DHT22;2760;50.000;9.194;2023-10-19T03:07:43;11.40;99.90
5476;DHT22;2760;50.000;9.194;2023-10-19T03:12:49;11.50;99.90
5476;DHT22;2760;50.000;9.194;2023-10-19T03:15:15;11.40;99.90
5476;DHT22;2760;50.000;9.194;2023-10-19T03:17:44;11.40;99.90
5476;DHT22;2760;50.000;9.194;2023-10-19T03:20:11;13.60;99.90
5476;DHT22;2760;50.000;9.194;2023-10-19T03:22:42;13.40;99.90
5476;DHT22;2760;50.000;9.194;2023-10-19T03:25:09;11.40;99.90
5476;DHT22;2760;50.000;9.194;2023-10-19T03:30:34;11.50;99.90
5476;DHT22;2760;50.000;9.194;2023-10-19T03:33:05;11.50;99.90
5476;DHT22;2760;50.000;9.194;2023-10-19T03:35:36;11.50;99.90
5476;DHT22;2760;50.000;9.194;2023-10-19T03:38:06;13.80;99.90
5476;DHT22;2760;50.000;9.194;2023-10-19T03:40:41;11.50;99.90
5476;DHT22;2760;50.000;9.194;2023-10-19T03:43:12;11.50;99.90
5476;DHT22;2760;50.000;9.194;2023-10-19T03:45:44;12.50;99.90
5476;DHT22;2760;50.000;9.194;2023-10-19T03:48:18;11.50;99.90
5476;DHT22;2760;50.000;9.194;2023-10-19T03:50:54;11.60;99.90
5476;DHT22;2760;50.000;9.194;2023-10-19T03:53:22;11.60;99.90
5476;DHT22;2760;50.000;9.194;2023-10-19T03:55:50;13.10;99.90
5476;DHT22;2760;50.000;9.194;2023-10-19T03:58:18;11.80;99.90
5476;DHT22;2760;50.000;9.194;2023-10-19T04:00:47;12.70;99.90
5476;DHT22;2760;50.000;9.194;2023-10-19T04:03:16;11.40;99.90
5476;DHT22;2760;50.000;9.194;2023-10-19T04:05:44;11.60;99.90
5476;DHT22;2760;50.000;9.194;2023-10-19T04:08:23;11.50;99.90
5476;DHT22;2760;50.000;9.194;2023-10-19T04:10:52;11.50;99.90
5476;DHT22;2760;50.000;9.194;2023-10-19T04:13:33;13.00;99.90
5476;DHT22;2760;50.000;9.194;2023-10-19T04:16:00;12.60;99.90
5476;DHT22;2760;50.000;9.194;2023-10-19T04:18:27;11.70;99.90
5476;DHT22;2760;50.000;9.194;2023-10-19T04:20:54;12.80;99.90
5476;DHT22;2760;50.000;9.194;2023-10-19T04:23:24;12.10;99.90
5476;DHT22;2760;50.000;9.194;2023-10-19T04:25:55;11.70;99.90
5476;DHT22;2760;50.000;9.194;2023-10-19T04:28:24;11.70;99.90
5476;DHT22;2760;50.000;9.194;2023-10-19T04:30:59;11.80;99.90
5476;DHT22;2760;50.000;9.194;2023-10-19T04:33:32;11.80;99.90
5476;DHT22;2760;50.000;9.194;2023-10-19T04:38:30;11.80;99.90
5476;DHT22;2760;50.000;9.194;2023-10-19T04:41:06;14.20;99.90
5476;DHT22;2760;50.000;9.194;2023-10-19T04:43:36;11.60;99.90
5476;DHT22;2760;50.000;9.194;2023-10-19T04:46:06;11.60;99.90
5476;DHT22;2760;50.000;9.194;2023-10-19T04:48:39;11.70;99.90
5476;DHT22;2760;50.000;9.194;2023-10-19T04:51:08;12.10;99.90
5476;DHT22;2760;50.000;9.194;2023-10-19T04:53:37;11.80;99.90
5476;DHT22;2760;50.000;9.194;2023-10-19T04:56:08;11.80;99.90
5476;DHT22;2760;50.000;9.194;2023-10-19T04:58:38;11.80;99.90
5476;DHT22;2760;50.000;9.194;2023-10-19T05:01:06;11.80;99.90
5476;DHT22;2760;50.000;9.194;2023-10-19T05:03:37;11.80;99.90
5476;DHT22;2760;50.000;9.194;2023-10-19T05:06:04;13.60;99.90
5476;DHT22;2760;50.000;9.194;2023-10-19T05:08:32;11.10;99.90
5476;DHT22;2760;50.000;9.194;2023-10-19T05:11:05;11.80;99.90
5476;DHT22;2760;50.000;9.194;2023-10-19T05:16:01;11.80;99.90
5476;DHT22;2760;50.000;9.194;2023-10-19T05:18:28;12.40;99.90
5476;DHT22;2760;50.000;9.194;2023-10-19T05:20:56;11.80;99.90
5476;DHT22;2760;50.000;9.194;2023-10-19T05:25:52;11.70;99.90
5476;DHT22;2760;50.000;9.194;2023-10-19T05:28:20;11.60;99.90
5476;DHT22;2760;50.000;9.194;2023-10-19T05:30:48;13.70;99.90
5476;DHT22;2760;50.000;9.194;2023-10-19T05:33:16;11.40;99.90
5476;DHT22;2760;50.000;9.194;2023-10-19T05:35:46;11.50;99.90
5476;DHT22;2760;50.000;9.194;2023-10-19T05:38:14;12.60;99.90
5476;DHT22;2760;50.000;9.194;2023-10-19T05:40:41;12.10;99.90
5476;DHT22;2760;50.000;9.194;2023-10-19T05:43:09;11.40;99.90
5476;DHT22;2760;50.000;9.194;2023-10-19T05:45:37;12.60;99.90
5476;DHT22;2760;50.000;9.194;2023-10-19T05:48:05;11.50;99.90
5476;DHT22;2760;50.000;9.194;2023-10-19T05:50:33;11.40;99.90
5476;DHT22;2760;50.000;9.194;2023-10-19T05:53:00;12.70;99.90
5476;DHT22;2760;50.000;9.194;2023-10-19T05:55:28;11.50;99.90
5476;DHT22;2760;50.000;9.194;2023-10-19T05:57:55;13.60;99.90
5476;DHT22;2760;50.000;9.194;2023-10-19T06:00:23;11.40;99.90
5476;DHT22;2760;50.000;9.194;2023-10-19T06:02:53;10.00;99.90
5476;DHT22;2760;50.000;9.194;2023-10-19T06:05:20;13.70;99.90
5476;DHT22;2760;50.000;9.194;2023-10-19T06:07:50;11.40;99.90
5476;DHT22;2760;50.000;9.194;2023-10-19T06:10:18;12.80;99.90
5476;DHT22;2760;50.000;9.194;2023-10-19T06:12:47;11.30;99.90
5476;DHT22;2760;50.000;9.194;2023-10-19T06:15:17;13.20;99.90
5476;DHT22;2760;50.000;9.194;2023-10-19T06:17:44;13.90;99.90
5476;DHT22;2760;50.000;9.194;2023-10-19T06:20:15;11.30;99.90
5476;DHT22;2760;50.000;9.194;2023-10-19T06:22:53;11.10;99.90
5476;DHT22;2760;50.000;9.194;2023-10-19T06:25:24;13.80;99.90
5476;DHT22;2760;50.000;9.194;2023-10-19T06:27:52;9.60;99.90
5476;DHT22;2760;50.000;9.194;2023-10-19T06:30:23;11.40;99.90
5476;DHT22;2760;50.000;9.194;2023-10-19T06:32:51;11.40;99.90
5476;DHT22;2760;50.000;9.194;2023-10-19T06:35:21;11.50;99.90
5476;DHT22;2760;50.000;9.194;2023-10-19T06:37:55;11.60;99.90
5476;DHT22;2760;50.000;9.194;2023-10-19T06:40:22;11.60;99.90
5476;DHT22;2760;50.000;9.194;2023-10-19T06:42:49;11.70;99.90
5476;DHT22;2760;50.000;9.194;2023-10-19T06:45:17;11.50;99.90
5476;DHT22;2760;50.000;9.194;2023-10-19T06:47:46;11.60;99.90
5476;DHT22;2760;50.000;9.194;2023-10-19T06:50:30;11.60;99.90
5476;DHT22;2760;50.000;9.194;2023-10-19T06:52:57;11.60;99.90
5476;DHT22;2760;50.000;9.194;2023-10-19T06:55:24;13.10;99.90
5476;DHT22;2760;50.000;9.194;2023-10-19T06:57:56;11.70;99.90
5476;DHT22;2760;50.000;9.194;2023-10-19T07:00:24;11.70;99.90
5476;DHT22;2760;50.000;9.194;2023-10-19T07:02:54;12.00;99.90
5476;DHT22;2760;50.000;9.194;2023-10-19T07:07:52;12.10;99.90
5476;DHT22;2760;50.000;9.194;2023-10-19T07:10:22;12.10;99.90
5476;DHT22;2760;50.000;9.194;2023-10-19T07:12:53;12.10;99.90
5476;DHT22;2760;50.000;9.194;2023-10-19T07:15:21;14.00;99.90
5476;DHT22;2760;50.000;9.194;2023-10-19T07:17:50;12.20;99.90
5476;DHT22;2760;50.000;9.194;2023-10-19T07:20:18;12.10;99.90
5476;DHT22;2760;50.000;9.194;2023-10-19T07:22:52;12.30;99.90
5476;DHT22;2760;50.000;9.194;2023-10-19T07:25:19;12.20;99.90
5476;DHT22;2760;50.000;9.194;2023-10-19T07:27:48;12.50;99.90
5476;DHT22;2760;50.000;9.194;2023-10-19T07:30:15;12.40;99.90
5476;DHT22;2760;50.000;9.194;2023-10-19T07:32:48;12.40;99.90
5476;DHT22;2760;50.000;9.194;2023-10-19T07:35:20;13.50;99.90
5476;DHT22;2760;50.000;9.194;2023-10-19T07:37:48;13.60;99.90
5476;DHT22;2760;50.000;9.194;2023-10-19T07:40:17;12.70;99.90
5476;DHT22;2760;50.000;9.194;2023-10-19T07:42:45;12.80;99.90
5476;DHT22;2760;50.000;9.194;2023-10-19T07:45:14;12.90;99.90
5476;DHT22;2760;50.000;9.194;2023-10-19T07:47:42;13.30;99.90
5476;DHT22;2760;50.000;9.194;2023-10-19T07:50:11;14.80;99.90
5476;DHT22;2760;50.000;9.194;2023-10-19T07:52:41;13.60;99.90
5476;DHT22;2760;50.000;9.194;2023-10-19T07:55:09;13.60;99.90
5476;DHT22;2760;50.000;9.194;2023-10-19T07:57:38;13.70;99.90
5476;DHT22;2760;50.000;9.194;2023-10-19T08:00:07;13.60;99.90
5476;DHT22;2760;50.000;9.194;2023-10-19T08:02:35;13.60;99.90
5476;DHT22;2760;50.000;9.194;2023-10-19T08:05:04;14.60;99.90
5476;DHT22;2760;50.000;9.194;2023-10-19T08:07:33;13.90;99.90
5476;DHT22;2760;50.000;9.194;2023-10-19T08:10:02;14.00;99.90
5476;DHT22;2760;50.000;9.194;2023-10-19T08:12:31;14.10;99.90
5476;DHT22;2760;50.000;9.194;2023-10-19T08:15:02;14.30;99.90
5476;DHT22;2760;50.000;9.194;2023-10-19T08:17:33;13.80;99.90
5476;DHT22;2760;50.000;9.194;2023-10-19T08:20:00;14.50;99.90
5476;DHT22;2760;50.000;9.194;2023-10-19T08:22:30;14.50;99.90
5476;DHT22;2760;50.000;9.194;2023-10-19T08:24:57;13.00;99.90
5476;DHT22;2760;50.000;9.194;2023-10-19T08:27:25;14.60;99.90
5476;DHT22;2760;50.000;9.194;2023-10-19T08:29:52;14.80;99.90
5476;DHT22;2760;50.000;9.194;2023-10-19T08:32:27;15.30;99.90
5476;DHT22;2760;50.000;9.194;2023-10-19T08:34:54;15.50;99.90
5476;DHT22;2760;50.000;9.194;2023-10-19T08:37:21;15.00;99.90
5476;DHT22;2760;50.000;9.194;2023-10-19T08:39:48;14.30;99.90
5476;DHT22;2760;50.000;9.194;2023-10-19T08:42:16;15.90;99.90
5476;DHT22;2760;50.000;9.194;2023-10-19T08:44:49;16.20;99.90
5476;DHT22;2760;50.000;9.194;2023-10-19T08:47:17;16.70;99.90
5476;DHT22;2760;50.000;9.194;2023-10-19T08:49:46;17.00;99.90
5476;DHT22;2760;50.000;9.194;2023-10-19T08:52:14;15.40;99.90
5476;DHT22;2760;50.000;9.194;2023-10-19T08:54:42;17.60;99.90
5476;DHT22;2760;50.000;9.194;2023-10-19T08:57:13;17.30;99.90
5476;DHT22;2760;50.000;9.194;2023-10-19T08:59:40;17.50;99.90
5476;DHT22;2760;50.000;9.194;2023-10-19T09:02:09;17.50;99.90
5476;DHT22;2760;50.000;9.194;2023-10-19T09:04:41;17.80;99.90
5476;DHT22;2760;50.000;9.194;2023-10-19T09:07:11;17.90;99.90
5476;DHT22;2760;50.000;9.194;2023-10-19T09:09:40;17.50;99.90
5476;DHT22;2760;50.000;9.194;2023-10-19T09:12:08;17.50;99.90
5476;DHT22;2760;50.000;9.194;2023-10-19T09:14:37;17.30;99.90
5476;DHT22;2760;50.000;9.194;2023-10-19T09:19:40;17.50;99.90
5476;DHT22;2760;50.000;9.194;2023-10-19T09:22:14;17.50;99.90
5476;DHT22;2760;50.000;9.194;2023-10-19T09:24:49;17.80;99.90
5476;DHT22;2760;50.000;9.194;2023-10-19T09:27:17;18.10;99.90
5476;DHT22;2760;50.000;9.194;2023-10-19T09:29:46;17.80;99.90
5476;DHT22;2760;50.000;9.194;2023-10-19T09:32:16;17.90;99.90
5476;DHT22;2760;50.000;9.194;2023-10-19T09:34:44;17.60;99.90
5476;DHT22;2760;50.000;9.194;2023-10-19T09:37:17;17.90;99.90
5476;DHT22;2760;50.000;9.194;2023-10-19T09:39:48;16.70;99.90
5476;DHT22;2760;50.000;9.194;2023-10-19T09:42:17;18.40;99.90
5476;DHT22;2760;50.000;9.194;2023-10-19T09:44:48;18.60;99.90
5476;DHT22;2760;50.000;9.194;2023-10-19T09:47:40;18.70;99.90
5476;DHT22;2760;50.000;9.194;2023-10-19T09:50:10;20.90;99.90
5476;DHT22;2760;50.000;9.194;2023-10-19T09:52:45;18.80;99.90
5476;DHT22;2760;50.000;9.194;2023-10-19T09:55:41;18.60;99.90
5476;DHT22;2760;50.000;9.194;2023-10-19T09:58:16;18.60;99.90
5476;DHT22;2760;50.000;9.194;2023-10-19T10:00:48;18.40;99.90
5476;DHT22;2760;50.000;9.194;2023-10-19T10:03:43;18.70;99.90
5476;DHT22;2760;50.000;9.194;2023-10-19T10:06:13;18.80;99.90
5476;DHT22;2760;50.000;9.194;2023-10-19T10:09:01;18.70;99.90
5476;DHT22;2760;50.000;9.194;2023-10-19T10:11:54;18.70;99.90
5476;DHT22;2760;50.000;9.194;2023-10-19T10:14:24;18.70;99.90
5476;DHT22;2760;50.000;9.194;2023-10-19T10:17:04;18.70;99.90
5476;DHT22;2760;50.000;9.194;2023-10-19T10:22:13;19.20;99.90
5476;DHT22;2760;50.000;9.194;2023-10-19T10:24:44;17.50;99.90
5476;DHT22;2760;50.000;9.194;2023-10-19T10:27:17;19.50;99.90
5476;DHT22;2760;50.000;9.194;2023-10-19T10:29:54;19.60;99.90
5476;DHT22;2760;50.000;9.194;2023-10-19T10:32:47;20.30;99.90
5476;DHT22;2760;50.000;9.194;2023-10-19T10:35:56;20.50;99.90
5476;DHT22;2760;50.000;9.194;2023-10-19T10:38:35;20.40;99.90
5476;DHT22;2760;50.000;9.194;2023-10-19T10:41:08;20.70;99.90
5476;DHT22;2760;50.000;9.194;2023-10-19T10:44:01;20.60;99.90
5476;DHT22;2760;50.000;9.194;2023-10-19T10:49:11;21.20;99.90
5476;DHT22;2760;50.000;9.194;2023-10-19T10:51:42;19.80;99.90
5476;DHT22;2760;50.000;9.194;2023-10-19T10:54:11;20.90;99.90
5476;DHT22;2760;50.000;9.194;2023-10-19T10:59:45;20.40;99.90
5476;DHT22;2760;50.000;9.194;2023-10-19T11:02:32;20.50;99.90
5476;DHT22;2760;50.000;9.194;2023-10-19T11:05:05;20.60;99.90
5476;DHT22;2760;50.000;9.194;2023-10-19T11:10:29;20.80;99.90
5476;DHT22;2760;50.000;9.194;2023-10-19T11:13:01;20.90;99.90
5476;DHT22;2760;50.000;9.194;2023-10-19T11:15:29;21.10;99.90
5476;DHT22;2760;50.000;9.194;2023-10-19T11:17:56;21.30;99.90
5476;DHT22;2760;50.000;9.194;2023-10-19T11:20:26;21.00;99.90
5476;DHT22;2760;50.000;9.194;2023-10-19T11:22:57;21.10;99.90
5476;DHT22;2760;50.000;9.194;2023-10-19T11:25:28;21.00;99.90
5476;DHT22;2760;50.000;9.194;2023-10-19T11:28:18;20.80;99.90
5476;DHT22;2760;50.000;9.194;2023-10-19T11:30:46;20.80;99.90
5476;DHT22;2760;50.000;9.194;2023-10-19T11:33:14;20.90;99.90
5476;DHT22;2760;50.000;9.194;2023-10-19T11:35:47;21.10;99.90
5476;DHT22;2760;50.000;9.194;2023-10-19T11:38:16;20.90;99.90
5476;DHT22;2760;50.000;9.194;2023-10-19T11:40:52;20.80;99.90
5476;DHT22;2760;50.000;9.194;2023-10-19T11:43:21;20.90;99.90
5476;DHT22;2760;50.000;9.194;2023-10-19T11:45:49;21.30;99.90
5476;DHT22;2760;50.000;9.194;2023-10-19T11:48:17;21.70;99.90
5476;DHT22;2760;50.000;9.194;2023-10-19T11:50:46;21.30;99.90
5476;DHT22;2760;50.000;9.194;2023-10-19T11:53:13;21.20;99.90
5476;DHT22;2760;50.000;9.194;2023-10-19T11:55:41;21.10;99.90
5476;DHT22;2760;50.000;9.194;2023-10-19T11:58:13;19.80;99.90
5476;DHT22;2760;50.000;9.194;2023-10-19T12:00:42;20.70;99.90
5476;DHT22;2760;50.000;9.194;2023-10-19T12:03:12;20.60;99.90
5476;DHT22;2760;50.000;9.194;2023-10-19T12:05:40;20.60;99.90
5476;DHT22;2760;50.000;9.194;2023-10-19T12:08:09;20.70;99.90
5476;DHT22;2760;50.000;9.194;2023-10-19T12:10:37;20.50;99.90
5476;DHT22;2760;50.000;9.194;2023-10-19T12:13:05;20.40;99.90
5476;DHT22;2760;50.000;9.194;2023-10-19T12:15:34;20.50;99.90
5476;DHT22;2760;50.000;9.194;2023-10-19T12:18:03;20.50;99.90
5476;DHT22;2760;50.000;9.194;2023-10-19T12:20:31;20.30;99.90
5476;DHT22;2760;50.000;9.194;2023-10-19T12:23:01;20.60;99.90
5476;DHT22;2760;50.000;9.194;2023-10-19T12:25:31;20.50;99.90
5476;DHT22;2760;50.000;9.194;2023-10-19T12:27:58;20.60;99.90
5476;DHT22;2760;50.000;9.194;2023-10-19T12:30:26;20.20;99.90
5476;DHT22;2760;50.000;9.194;2023-10-19T12:33:02;20.30;99.90
5476;DHT22;2760;50.000;9.194;2023-10-19T12:35:33;20.10;99.90
5476;DHT22;2760;50.000;9.194;2023-10-19T12:38:11;19.90;99.90
5476;DHT22;2760;50.000;9.194;2023-10-19T12:40:45;19.80;99.90
5476;DHT22;2760;50.000;9.194;2023-10-19T12:43:13;20.00;99.90
5476;DHT22;2760;50.000;9.194;2023-10-19T12:45:43;19.90;99.90
5476;DHT22;2760;50.000;9.194;2023-10-19T12:48:18;19.90;99.90
5476;DHT22;2760;50.000;9.194;2023-10-19T12:50:45;19.80;99.90
5476;DHT22;2760;50.000;9.194;2023-10-19T12:53:13;19.80;99.90
5476;DHT22;2760;50.000;9.194;2023-10-19T12:58:09;19.70;99.90
5476;DHT22;2760;50.000;9.194;2023-10-19T13:00:37;20.50;99.90
5476;DHT22;2760;50.000;9.194;2023-10-19T13:03:10;19.60;99.90
5476;DHT22;2760;50.000;9.194;2023-10-19T13:05:43;19.60;99.90
5476;DHT22;2760;50.000;9.194;2023-10-19T13:08:15;19.40;99.90
5476;DHT22;2760;50.000;9.194;2023-10-19T13:10:46;19.40;99.90
5476;DHT22;2760;50.000;9.194;2023-10-19T13:13:15;19.30;99.90
5476;DHT22;2760;50.000;9.194;2023-10-19T13:15:47;19.40;99.90
5476;DHT22;2760;50.000;9.194;2023-10-19T13:18:15;19.40;99.90
5476;DHT22;2760;50.000;9.194;2023-10-19T13:20:47;21.50;99.90
5476;DHT22;2760;50.000;9.194;2023-10-19T13:23:16;19.50;99.90
5476;DHT22;2760;50.000;9.194;2023-10-19T13:25:47;19.50;99.90
5476;DHT22;2760;50.000;9.194;2023-10-19T13:28:20;19.40;99.90
5476;DHT22;2760;50.000;9.194;2023-10-19T13:30:49;19.20;99.90
5476;DHT22;2760;50.000;9.194;2023-10-19T13:33:17;19.20;99.90
5476;DHT22;2760;50.000;9.194;2023-10-19T13:35:47;19.10;99.90
5476;DHT22;2760;50.000;9.194;2023-10-19T13:38:16;18.10;99.90
5476;DHT22;2760;50.000;9.194;2023-10-19T13:40:47;18.90;99.90
5476;DHT22;2760;50.000;9.194;2023-10-19T13:43:16;19.00;99.90
5476;DHT22;2760;50.000;9.194;2023-10-19T13:45:46;18.80;99.90
5476;DHT22;2760;50.000;9.194;2023-10-19T13:48:14;18.80;99.90
5476;DHT22;2760;50.000;9.194;2023-10-19T13:50:42;18.80;99.90
5476;DHT22;2760;50.000;9.194;2023-10-19T13:53:13;17.30;99.90
5476;DHT22;2760;50.000;9.194;2023-10-19T13:55:41;18.70;99.90
5476;DHT22;2760;50.000;9.194;2023-10-19T13:58:09;17.80;99.90
5476;DHT22;2760;50.000;9.194;2023-10-19T14:00:36;18.70;99.90
5476;DHT22;2760;50.000;9.194;2023-10-19T14:03:07;18.80;99.90
5476;DHT22;2760;50.000;9.194;2023-10-19T14:05:36;18.70;99.90
5476;DHT22;2760;50.000;9.194;2023-10-19T14:08:05;18.70;99.90
5476;DHT22;2760;50.000;9.194;2023-10-19T14:10:34;18.80;99.90
5476;DHT22;2760;50.000;9.194;2023-10-19T14:13:02;18.70;99.90
5476;DHT22;2760;50.000;9.194;2023-10-19T14:15:34;16.50;99.90
5476;DHT22;2760;50.000;9.194;2023-10-19T14:18:01;18.50;99.90
5476;DHT22;2760;50.000;9.194;2023-10-19T14:20:29;18.50;99.90
5476;DHT22;2760;50.000;9.194;2023-10-19T14:22:59;18.50;99.90
5476;DHT22;2760;50.000;9.194;2023-10-19T14:25:28;18.40;99.90
5476;DHT22;2760;50.000;9.194;2023-10-19T14:27:58;19.20;99.90
5476;DHT22;2760;50.000;9.194;2023-10-19T14:30:30;18.50;99.90
5476;DHT22;2760;50.000;9.194;2023-10-19T14:32:57;18.30;99.90
5476;DHT22;2760;50.000;9.194;2023-10-19T14:35:25;18.60;99.90
5476;DHT22;2760;50.000;9.194;2023-10-19T14:37:54;18.60;99.90
5476;DHT22;2760;50.000;9.194;2023-10-19T14:40:22;18.50;99.90
5476;DHT22;2760;50.000;9.194;2023-10-19T14:42:51;18.40;99.90
5476;DHT22;2760;50.000;9.194;2023-10-19T14:45:23;18.40;99.90
5476;DHT22;2760;50.000;9.194;2023-10-19T14:47:55;18.50;99.90
5476;DHT22;2760;50.000;9.194;2023-10-19T14:50:23;18.30;99.90
5476;DHT22;2760;50.000;9.194;2023-10-19T14:52:53;18.30;99.90
5476;DHT22;2760;50.000;9.194;2023-10-19T14:55:21;18.20;99.90
5476;DHT22;2760;50.000;9.194;2023-10-19T14:57:50;18.30;99.90
5476;DHT22;2760;50.000;9.194;2023-10-19T15:00:21;18.20;99.90
5476;DHT22;2760;50.000;9.194;2023-10-19T15:02:49;18.40;99.90
5476;DHT22;2760;50.000;9.194;2023-10-19T15:05:17;18.40;99.90
5476;DHT22;2760;50.000;9.194;2023-10-19T15:07:47;18.50;99.90
5476;DHT22;2760;50.000;9.194;2023-10-19T15:10:19;18.30;99.90
5476;DHT22;2760;50.000;9.194;2023-10-19T15:12:47;18.30;99.90
5476;DHT22;2760;50.000;9.194;2023-10-19T15:15:15;18.20;99.90
5476;DHT22;2760;50.000;9.194;2023-10-19T15:17:46;18.20;99.90
5476;DHT22;2760;50.000;9.194;2023-10-19T15:20:14;18.30;99.90
5476;DHT22;2760;50.000;9.194;2023-10-19T15:22:42;18.00;99.90
5476;DHT22;2760;50.000;9.194;2023-10-19T15:25:12;18.00;99.90
5476;DHT22;2760;50.000;9.194;2023-10-19T15:27:41;17.90;99.90
5476;DHT22;2760;50.000;9.194;2023-10-19T15:30:10;17.90;99.90
5476;DHT22;2760;50.000;9.194;2023-10-19T15:32:39;16.10;99.90
5476;DHT22;2760;50.000;9.194;2023-10-19T15:35:09;17.70;99.90
5476;DHT22;2760;50.000;9.194;2023-10-19T15:37:37;17.70;99.90
5476;DHT22;2760;50.000;9.194;2023-10-19T15:40:06;17.30;99.90
5476;DHT22;2760;50.000;9.194;2023-10-19T15:42:38;17.20;99.90
5476;DHT22;2760;50.000;9.194;2023-10-19T15:45:08;17.40;99.90
5476;DHT22;2760;50.000;9.194;2023-10-19T15:47:36;16.10;99.90
5476;DHT22;2760;50.000;9.194;2023-10-19T15:50:03;17.20;99.90
5476;DHT22;2760;50.000;9.194;2023-10-19T15:52:32;17.00;99.90
5476;DHT22;2760;50.000;9.194;2023-10-19T15:55:03;17.00;99.90
5476;DHT22;2760;50.000;9.194;2023-10-19T15:57:30;16.90;99.90
5476;DHT22;2760;50.000;9.194;2023-10-19T15:59:59;16.80;99.90
5476;DHT22;2760;50.000;9.194;2023-10-19T16:02:26;17.00;99.90
5476;DHT22;2760;50.000;9.194;2023-10-19T16:04:53;16.70;99.90
5476;DHT22;2760;50.000;9.194;2023-10-19T16:07:20;16.70;99.90
5476;DHT22;2760;50.000;9.194;2023-10-19T16:09:49;16.60;99.90
5476;DHT22;2760;50.000;9.194;2023-10-19T16:12:17;17.20;99.90
5476;DHT22;2760;50.000;9.194;2023-10-19T16:14:46;16.50;99.90
5476;DHT22;2760;50.000;9.194;2023-10-19T16:17:13;16.10;99.90
5476;DHT22;2760;50.000;9.194;2023-10-19T16:19:42;16.50;99.90
5476;DHT22;2760;50.000;9.194;2023-10-19T16:22:10;16.40;99.90
5476;DHT22;2760;50.000;9.194;2023-10-19T16:24:38;16.30;99.90
5476;DHT22;2760;50.000;9.194;2023-10-19T16:27:07;16.50;99.90
5476;DHT22;2760;50.000;9.194;2023-10-19T16:32:06;16.40;99.90
5476;DHT22;2760;50.000;9.194;2023-10-19T16:34:36;16.10;99.90
5476;DHT22;2760;50.000;9.194;2023-10-19T16:37:09;16.30;99.90
5476;DHT22;2760;50.000;9.194;2023-10-19T16:40:12;16.90;99.90
5476;DHT22;2760;50.000;9.194;2023-10-19T16:43:34;14.40;99.90
5476;DHT22;2760;50.000;9.194;2023-10-19T16:58:15;15.90;99.90
5476;DHT22;2760;50.000;9.194;2023-10-19T17:01:04;15.90;99.90
5476;DHT22;2760;50.000;9.194;2023-10-19T17:03:35;15.80;99.90
5476;DHT22;2760;50.000;9.194;2023-10-19T17:06:02;15.70;99.90
5476;DHT22;2760;50.000;9.194;2023-10-19T17:08:31;15.70;99.90
5476;DHT22;2760;50.000;9.194;2023-10-19T17:11:19;15.60;99.90
5476;DHT22;2760;50.000;9.194;2023-10-19T17:14:03;15.60;99.90
5476;DHT22;2760;50.000;9.194;2023-10-19T17:16:48;15.50;99.90
5476;DHT22;2760;50.000;9.194;2023-10-19T17:19:18;15.50;99.90
5476;DHT22;2760;50.000;9.194;2023-10-19T17:21:48;16.60;99.90
5476;DHT22;2760;50.000;9.194;2023-10-19T17:24:15;15.40;99.90
5476;DHT22;2760;50.000;9.194;2023-10-19T17:26:42;14.20;99.90
5476;DHT22;2760;50.000;9.194;2023-10-19T17:29:10;15.30;99.90
5476;DHT22;2760;50.000;9.194;2023-10-19T17:31:38;15.30;99.90
5476;DHT22;2760;50.000;9.194;2023-10-19T17:34:07;15.40;99.90
5476;DHT22;2760;50.000;9.194;2023-10-19T17:36:34;15.20;99.90